sensor_id;sensor_type;location;lat;lon;timestamp;pressure;altitude;pressure_sealevel;temperature;humidity
60852;BME280;48553;50.766;2.900;2023-04-24T00:00:36;99572.38;;;9.65;87.96
60852;BME280;48553;50.766;2.900;2023-04-24T00:03:36;99576.72;;;9.66;87.90
60852;BME280;48553;50.766;2.900;2023-04-24T00:06:37;99577.84;;;9.65;87.96
60852;BME280;48553;50.766;2.900;2023-04-24T00:09:37;99580.13;;;9.62;88.08
60852;BME280;48553;50.766;2.900;2023-04-24T00:12:38;99592.59;;;9.60;88.17
60852;BME280;48553;50.766;2.900;2023-04-24T00:15:38;99589.50;;;9.61;88.16
60852;BME280;48553;50.766;2.900;2023-04-24T00:18:39;99593.38;;;9.60;88.21
60852;BME280;48553;50.766;2.900;2023-04-24T00:21:40;99599.56;;;9.57;88.37
60852;BME280;48553;50.766;2.900;2023-04-24T00:24:41;99606.28;;;9.60;88.28
60852;BME280;48553;50.766;2.900;2023-04-24T00:27:42;99605.03;;;9.57;88.17
60852;BME280;48553;50.766;2.900;2023-04-24T00:30:42;99602.31;;;9.57;88.32
60852;BME280;48553;50.766;2.900;2023-04-24T00:33:42;99600.34;;;9.58;88.14
60852;BME280;48553;50.766;2.900;2023-04-24T00:36:43;99601.88;;;9.55;87.87
60852;BME280;48553;50.766;2.900;2023-04-24T00:39:43;99604.25;;;9.57;87.94
60852;BME280;48553;50.766;2.900;2023-04-24T00:42:44;99608.84;;;9.53;88.29
60852;BME280;48553;50.766;2.900;2023-04-24T00:45:46;99599.50;;;9.54;87.98
60852;BME280;48553;50.766;2.900;2023-04-24T00:48:46;99609.63;;;9.53;87.99
60852;BME280;48553;50.766;2.900;2023-04-24T00:51:47;99604.09;;;9.50;88.04
60852;BME280;48553;50.766;2.900;2023-04-24T00:54:47;99609.91;;;9.48;88.19
60852;BME280;48553;50.766;2.900;2023-04-24T00:57:48;99610.69;;;9.49;87.77
60852;BME280;48553;50.766;2.900;2023-04-24T01:00:50;99616.13;;;9.45;87.92
60852;BME280;48553;50.766;2.900;2023-04-24T01:03:53;99606.41;;;9.48;88.10
60852;BME280;48553;50.766;2.900;2023-04-24T01:06:54;99614.06;;;9.42;88.30
60852;BME280;48553;50.766;2.900;2023-04-24T01:09:56;99607.47;;;9.43;88.31
60852;BME280;48553;50.766;2.900;2023-04-24T01:12:56;99622.28;;;9.42;88.31
60852;BME280;48553;50.766;2.900;2023-04-24T01:15:58;99617.25;;;9.44;88.26
60852;BME280;48553;50.766;2.900;2023-04-24T01:18:58;99623.88;;;9.43;88.42
60852;BME280;48553;50.766;2.900;2023-04-24T01:22:01;99622.28;;;9.42;88.32
60852;BME280;48553;50.766;2.900;2023-04-24T01:25:03;99622.28;;;9.42;88.52
60852;BME280;48553;50.766;2.900;2023-04-24T01:28:03;99619.53;;;9.42;88.65
60852;BME280;48553;50.766;2.900;2023-04-24T01:31:04;99618.75;;;9.41;88.61
60852;BME280;48553;50.766;2.900;2023-04-24T01:34:04;99626.16;;;9.41;88.56
60852;BME280;48553;50.766;2.900;2023-04-24T01:37:05;99621.84;;;9.40;88.74
60852;BME280;48553;50.766;2.900;2023-04-24T01:40:07;99629.97;;;9.36;89.04
60852;BME280;48553;50.766;2.900;2023-04-24T01:43:07;99621.44;;;9.38;89.13
60852;BME280;48553;50.766;2.900;2023-04-24T01:46:07;99624.50;;;9.36;89.01
60852;BME280;48553;50.766;2.900;2023-04-24T01:49:08;99634.66;;;9.36;89.33
60852;BME280;48553;50.766;2.900;2023-04-24T01:52:08;99628.03;;;9.37;89.30
60852;BME280;48553;50.766;2.900;2023-04-24T01:55:09;99640.56;;;9.38;89.24
60852;BME280;48553;50.766;2.900;2023-04-24T01:58:10;99642.84;;;9.36;89.39
60852;BME280;48553;50.766;2.900;2023-04-24T02:01:17;99644.72;;;9.32;89.88
60852;BME280;48553;50.766;2.900;2023-04-24T02:04:18;99654.94;;;9.35;89.81
60852;BME280;48553;50.766;2.900;2023-04-24T02:07:18;99651.06;;;9.36;89.85
60852;BME280;48553;50.766;2.900;2023-04-24T02:10:19;99662.78;;;9.36;89.76
60852;BME280;48553;50.766;2.900;2023-04-24T02:13:20;99656.53;;;9.36;89.59
60852;BME280;48553;50.766;2.900;2023-04-24T02:16:20;99662.00;;;9.36;89.64
60852;BME280;48553;50.766;2.900;2023-04-24T02:19:21;99672.03;;;9.32;89.83
60852;BME280;48553;50.766;2.900;2023-04-24T02:22:21;99667.47;;;9.36;89.70
60852;BME280;48553;50.766;2.900;2023-04-24T02:25:22;99667.09;;;9.37;89.45
60852;BME280;48553;50.766;2.900;2023-04-24T02:28:22;99682.28;;;9.35;89.56
60852;BME280;48553;50.766;2.900;2023-04-24T02:31:23;99684.94;;;9.31;89.71
60852;BME280;48553;50.766;2.900;2023-04-24T02:34:23;99695.50;;;9.33;89.70
60852;BME280;48553;50.766;2.900;2023-04-24T02:37:24;99699.72;;;9.30;90.07
60852;BME280;48553;50.766;2.900;2023-04-24T02:40:24;99702.13;;;9.32;89.76
60852;BME280;48553;50.766;2.900;2023-04-24T02:43:24;99705.66;;;9.32;89.67
60852;BME280;48553;50.766;2.900;2023-04-24T02:46:25;99710.66;;;9.30;90.02
60852;BME280;48553;50.766;2.900;2023-04-24T02:49:26;99718.88;;;9.30;89.77
60852;BME280;48553;50.766;2.900;2023-04-24T02:52:27;99711.84;;;9.29;89.89
60852;BME280;48553;50.766;2.900;2023-04-24T02:55:27;99723.13;;;9.28;89.60
60852;BME280;48553;50.766;2.900;2023-04-24T02:58:28;99724.69;;;9.29;89.52
60852;BME280;48553;50.766;2.900;2023-04-24T03:01:28;99736.00;;;9.27;89.66
60852;BME280;48553;50.766;2.900;2023-04-24T03:04:29;99735.56;;;9.25;89.83
60852;BME280;48553;50.766;2.900;2023-04-24T03:07:30;99746.47;;;9.25;89.89
60852;BME280;48553;50.766;2.900;2023-04-24T03:10:31;99752.03;;;9.29;89.77
60852;BME280;48553;50.766;2.900;2023-04-24T03:13:32;99749.66;;;9.27;89.74
60852;BME280;48553;50.766;2.900;2023-04-24T03:16:32;99756.63;;;9.25;89.77
60852;BME280;48553;50.766;2.900;2023-04-24T03:19:33;99766.75;;;9.24;89.65
60852;BME280;48553;50.766;2.900;2023-04-24T03:22:33;99771.44;;;9.24;89.79
60852;BME280;48553;50.766;2.900;2023-04-24T03:25:34;99767.47;;;9.21;90.16
60852;BME280;48553;50.766;2.900;2023-04-24T03:28:35;99779.09;;;9.18;89.99
60852;BME280;48553;50.766;2.900;2023-04-24T03:31:35;99777.28;;;9.22;89.83
60852;BME280;48553;50.766;2.900;2023-04-24T03:34:35;99776.81;;;9.20;89.77
60852;BME280;48553;50.766;2.900;2023-04-24T03:37:36;99781.91;;;9.22;89.79
60852;BME280;48553;50.766;2.900;2023-04-24T03:40:36;99778.75;;;9.19;90.14
60852;BME280;48553;50.766;2.900;2023-04-24T03:43:37;99791.63;;;9.19;90.10
60852;BME280;48553;50.766;2.900;2023-04-24T03:46:38;99795.13;;;9.19;89.95
60852;BME280;48553;50.766;2.900;2023-04-24T03:49:38;99802.22;;;9.20;89.83
60852;BME280;48553;50.766;2.900;2023-04-24T03:52:39;99797.88;;;9.19;89.73
60852;BME280;48553;50.766;2.900;2023-04-24T03:55:39;99794.34;;;9.19;89.79
60852;BME280;48553;50.766;2.900;2023-04-24T03:58:40;99797.47;;;9.17;89.71
60852;BME280;48553;50.766;2.900;2023-04-24T04:01:40;99804.38;;;9.15;89.78
60852;BME280;48553;50.766;2.900;2023-04-24T04:04:41;99808.63;;;9.12;89.45
60852;BME280;48553;50.766;2.900;2023-04-24T04:07:41;99811.34;;;9.12;89.30
60852;BME280;48553;50.766;2.900;2023-04-24T04:10:41;99817.19;;;9.11;89.13
60852;BME280;48553;50.766;2.900;2023-04-24T04:13:42;99825.41;;;9.11;89.12
60852;BME280;48553;50.766;2.900;2023-04-24T04:16:42;99834.38;;;9.11;89.07
60852;BME280;48553;50.766;2.900;2023-04-24T04:19:43;99840.63;;;9.12;89.05
60852;BME280;48553;50.766;2.900;2023-04-24T04:22:43;99846.09;;;9.12;88.84
60852;BME280;48553;50.766;2.900;2023-04-24T04:25:44;99852.63;;;9.07;88.92
60852;BME280;48553;50.766;2.900;2023-04-24T04:28:44;99861.16;;;9.06;88.57
60852;BME280;48553;50.766;2.900;2023-04-24T04:31:45;99869.34;;;9.06;88.54
60852;BME280;48553;50.766;2.900;2023-04-24T04:34:45;99863.00;;;9.02;88.45
60852;BME280;48553;50.766;2.900;2023-04-24T04:37:46;99867.66;;;9.01;88.50
60852;BME280;48553;50.766;2.900;2023-04-24T04:40:46;99882.13;;;9.02;88.32
60852;BME280;48553;50.766;2.900;2023-04-24T04:43:46;99890.22;;;8.98;88.27
60852;BME280;48553;50.766;2.900;2023-04-24T04:46:47;99881.69;;;8.99;88.29
60852;BME280;48553;50.766;2.900;2023-04-24T04:49:48;99893.75;;;8.98;88.26
60852;BME280;48553;50.766;2.900;2023-04-24T04:52:48;99896.03;;;8.96;88.22
60852;BME280;48553;50.766;2.900;2023-04-24T04:55:49;99906.06;;;8.92;88.28
60852;BME280;48553;50.766;2.900;2023-04-24T04:58:50;99911.19;;;8.94;88.38
60852;BME280;48553;50.766;2.900;2023-04-24T05:01:50;99918.94;;;8.92;88.37
60852;BME280;48553;50.766;2.900;2023-04-24T05:04:50;99916.66;;;8.94;88.28
60852;BME280;48553;50.766;2.900;2023-04-24T05:07:51;99927.91;;;8.92;88.23
60852;BME280;48553;50.766;2.900;2023-04-24T05:10:51;99926.66;;;8.90;88.47
60852;BME280;48553;50.766;2.900;2023-04-24T05:13:52;99950.47;;;8.89;88.46
60852;BME280;48553;50.766;2.900;2023-04-24T05:16:52;99943.53;;;8.92;88.46
60852;BME280;48553;50.766;2.900;2023-04-24T05:19:53;99951.72;;;8.92;88.49
60852;BME280;48553;50.766;2.900;2023-04-24T05:22:53;99961.84;;;8.91;88.38
60852;BME280;48553;50.766;2.900;2023-04-24T05:25:54;99972.00;;;8.91;88.54
60852;BME280;48553;50.766;2.900;2023-04-24T05:28:54;99968.56;;;8.94;88.21
60852;BME280;48553;50.766;2.900;2023-04-24T05:31:55;99978.72;;;8.93;87.85
60852;BME280;48553;50.766;2.900;2023-04-24T05:34:55;99987.94;;;8.89;88.36
60852;BME280;48553;50.766;2.900;2023-04-24T05:37:56;99998.53;;;8.90;88.39
60852;BME280;48553;50.766;2.900;2023-04-24T05:40:56;100001.28;;;8.90;88.38
60852;BME280;48553;50.766;2.900;2023-04-24T05:43:57;100008.66;;;8.90;88.63
60852;BME280;48553;50.766;2.900;2023-04-24T05:46:57;100007.84;;;8.89;88.86
60852;BME280;48553;50.766;2.900;2023-04-24T05:49:57;100013.66;;;8.88;88.58
60852;BME280;48553;50.766;2.900;2023-04-24T05:52:58;100027.31;;;8.88;88.95
60852;BME280;48553;50.766;2.900;2023-04-24T05:55:58;100024.72;;;8.91;88.66
60852;BME280;48553;50.766;2.900;2023-04-24T05:59:01;100035.97;;;8.90;89.05
60852;BME280;48553;50.766;2.900;2023-04-24T06:02:02;100040.78;;;8.93;88.64
60852;BME280;48553;50.766;2.900;2023-04-24T06:05:02;100039.63;;;8.94;88.80
60852;BME280;48553;50.766;2.900;2023-04-24T06:08:02;100053.41;;;8.97;89.07
60852;BME280;48553;50.766;2.900;2023-04-24T06:11:03;100065.47;;;8.96;89.09
60852;BME280;48553;50.766;2.900;2023-04-24T06:14:03;100058.09;;;8.97;89.07
60852;BME280;48553;50.766;2.900;2023-04-24T06:17:04;100071.63;;;8.93;89.52
60852;BME280;48553;50.766;2.900;2023-04-24T06:20:06;100072.75;;;8.92;89.36
60852;BME280;48553;50.766;2.900;2023-04-24T06:23:08;100079.50;;;8.95;89.45
60852;BME280;48553;50.766;2.900;2023-04-24T06:26:08;100088.16;;;8.97;89.29
60852;BME280;48553;50.766;2.900;2023-04-24T06:29:08;100082.00;;;9.00;89.13
60852;BME280;48553;50.766;2.900;2023-04-24T06:32:09;100089.16;;;9.05;88.85
60852;BME280;48553;50.766;2.900;2023-04-24T06:35:10;100092.56;;;9.14;88.95
60852;BME280;48553;50.766;2.900;2023-04-24T06:38:11;100098.16;;;9.17;88.60
60852;BME280;48553;50.766;2.900;2023-04-24T06:41:12;100096.69;;;9.20;88.83
60852;BME280;48553;50.766;2.900;2023-04-24T06:44:13;100113.88;;;9.20;89.46
60852;BME280;48553;50.766;2.900;2023-04-24T06:47:14;100100.09;;;9.17;89.83
60852;BME280;48553;50.766;2.900;2023-04-24T06:50:15;100112.63;;;9.18;89.98
60852;BME280;48553;50.766;2.900;2023-04-24T06:53:16;100113.41;;;9.18;90.11
60852;BME280;48553;50.766;2.900;2023-04-24T06:56:16;100114.66;;;9.21;90.06
60852;BME280;48553;50.766;2.900;2023-04-24T06:59:17;100122.31;;;9.28;89.55
60852;BME280;48553;50.766;2.900;2023-04-24T07:02:17;100124.34;;;9.31;89.51
60852;BME280;48553;50.766;2.900;2023-04-24T07:05:17;100131.19;;;9.37;89.67
60852;BME280;48553;50.766;2.900;2023-04-24T07:08:20;100120.25;;;9.49;89.01
60852;BME280;48553;50.766;2.900;2023-04-24T07:11:22;100117.50;;;9.61;88.34
60852;BME280;48553;50.766;2.900;2023-04-24T07:14:22;100131.03;;;9.70;88.75
60852;BME280;48553;50.766;2.900;2023-04-24T07:17:22;100126.22;;;9.79;89.03
60852;BME280;48553;50.766;2.900;2023-04-24T07:20:23;100125.78;;;9.77;89.93
60852;BME280;48553;50.766;2.900;2023-04-24T07:23:23;100128.06;;;9.75;88.27
60852;BME280;48553;50.766;2.900;2023-04-24T07:26:24;100127.72;;;9.77;88.12
60852;BME280;48553;50.766;2.900;2023-04-24T07:29:25;100130.56;;;9.80;88.19
60852;BME280;48553;50.766;2.900;2023-04-24T07:32:25;100132.69;;;9.87;88.26
60852;BME280;48553;50.766;2.900;2023-04-24T07:35:26;100148.88;;;9.92;87.98
60852;BME280;48553;50.766;2.900;2023-04-24T07:38:29;100137.59;;;9.94;88.34
60852;BME280;48553;50.766;2.900;2023-04-24T07:41:29;100148.19;;;9.95;88.29
60852;BME280;48553;50.766;2.900;2023-04-24T07:44:30;100148.53;;;9.94;87.84
60852;BME280;48553;50.766;2.900;2023-04-24T07:47:31;100154.34;;;9.92;88.04
60852;BME280;48553;50.766;2.900;2023-04-24T07:50:31;100160.19;;;9.91;88.30
60852;BME280;48553;50.766;2.900;2023-04-24T07:53:32;100155.38;;;9.88;87.89
60852;BME280;48553;50.766;2.900;2023-04-24T07:56:33;100160.44;;;9.86;88.27
60852;BME280;48553;50.766;2.900;2023-04-24T07:59:34;100172.41;;;9.81;88.41
60852;BME280;48553;50.766;2.900;2023-04-24T08:02:34;100172.41;;;9.81;88.34
60852;BME280;48553;50.766;2.900;2023-04-24T08:05:35;100181.75;;;9.80;88.19
60852;BME280;48553;50.766;2.900;2023-04-24T08:08:35;100177.88;;;9.81;87.99
60852;BME280;48553;50.766;2.900;2023-04-24T08:11:35;100186.78;;;9.78;88.32
60852;BME280;48553;50.766;2.900;2023-04-24T08:14:36;100191.47;;;9.77;88.08
60852;BME280;48553;50.766;2.900;2023-04-24T08:17:36;100194.28;;;9.81;87.79
60852;BME280;48553;50.766;2.900;2023-04-24T08:20:37;100194.19;;;9.77;88.00
60852;BME280;48553;50.766;2.900;2023-04-24T08:23:37;100199.75;;;9.81;87.79
60852;BME280;48553;50.766;2.900;2023-04-24T08:26:38;100210.03;;;9.84;87.47
60852;BME280;48553;50.766;2.900;2023-04-24T08:29:38;100211.53;;;9.81;87.93
60852;BME280;48553;50.766;2.900;2023-04-24T08:32:38;100221.31;;;9.82;87.75
60852;BME280;48553;50.766;2.900;2023-04-24T08:35:39;100221.91;;;9.88;87.28
60852;BME280;48553;50.766;2.900;2023-04-24T08:38:39;100214.94;;;9.91;87.13
60852;BME280;48553;50.766;2.900;2023-04-24T08:41:42;100220.16;;;9.96;87.27
60852;BME280;48553;50.766;2.900;2023-04-24T08:44:43;100220.97;;;10.09;86.74
60852;BME280;48553;50.766;2.900;2023-04-24T08:47:44;100216.81;;;10.15;86.86
60852;BME280;48553;50.766;2.900;2023-04-24T08:50:47;100219.41;;;10.23;86.67
60852;BME280;48553;50.766;2.900;2023-04-24T08:53:48;100224.22;;;10.39;87.17
60852;BME280;48553;50.766;2.900;2023-04-24T08:56:48;100227.94;;;10.47;87.47
60852;BME280;48553;50.766;2.900;2023-04-24T08:59:50;100218.59;;;10.48;86.85
60852;BME280;48553;50.766;2.900;2023-04-24T09:02:52;100224.53;;;10.50;86.24
60852;BME280;48553;50.766;2.900;2023-04-24T09:05:54;100216.31;;;10.50;86.81
60852;BME280;48553;50.766;2.900;2023-04-24T09:08:55;100226.81;;;10.48;86.73
60852;BME280;48553;50.766;2.900;2023-04-24T09:11:56;100235.03;;;10.48;86.08
60852;BME280;48553;50.766;2.900;2023-04-24T09:14:58;100225.19;;;10.47;85.88
60852;BME280;48553;50.766;2.900;2023-04-24T09:18:00;100227.16;;;10.46;85.57
60852;BME280;48553;50.766;2.900;2023-04-24T09:21:07;100224.16;;;10.51;85.66
60852;BME280;48553;50.766;2.900;2023-04-24T09:24:15;100240.25;;;10.53;85.53
60852;BME280;48553;50.766;2.900;2023-04-24T09:27:17;100237.50;;;10.53;85.93
60852;BME280;48553;50.766;2.900;2023-04-24T09:30:21;100236.81;;;10.56;85.77
60852;BME280;48553;50.766;2.900;2023-04-24T09:33:23;100241.59;;;10.59;85.45
60852;BME280;48553;50.766;2.900;2023-04-24T09:36:30;100246.72;;;10.60;85.35
60852;BME280;48553;50.766;2.900;2023-04-24T09:39:34;100249.91;;;10.62;85.28
60852;BME280;48553;50.766;2.900;2023-04-24T09:42:34;100252.78;;;10.66;85.25
60852;BME280;48553;50.766;2.900;2023-04-24T09:45:37;100265.75;;;10.69;85.87
60852;BME280;48553;50.766;2.900;2023-04-24T09:48:38;100260.66;;;10.68;85.21
60852;BME280;48553;50.766;2.900;2023-04-24T09:51:38;100257.53;;;10.69;85.20
60852;BME280;48553;50.766;2.900;2023-04-24T09:54:39;100263.41;;;10.68;85.36
60852;BME280;48553;50.766;2.900;2023-04-24T10:00:49;100269.16;;;10.78;84.79
60852;BME280;48553;50.766;2.900;2023-04-24T10:03:51;100269.31;;;10.98;84.64
60852;BME280;48553;50.766;2.900;2023-04-24T10:06:53;100274.72;;;11.10;84.98
60852;BME280;48553;50.766;2.900;2023-04-24T10:09:54;100269.88;;;11.19;85.23
60852;BME280;48553;50.766;2.900;2023-04-24T10:12:54;100280.94;;;11.23;84.97
60852;BME280;48553;50.766;2.900;2023-04-24T10:15:56;100282.97;;;11.26;84.87
60852;BME280;48553;50.766;2.900;2023-04-24T10:18:59;100278.50;;;11.34;85.01
60852;BME280;48553;50.766;2.900;2023-04-24T10:22:00;100283.63;;;11.51;85.22
60852;BME280;48553;50.766;2.900;2023-04-24T10:25:03;100287.19;;;11.67;84.53
60852;BME280;48553;50.766;2.900;2023-04-24T10:28:05;100279.13;;;11.90;84.01
60852;BME280;48553;50.766;2.900;2023-04-24T10:31:06;100288.44;;;12.02;84.66
60852;BME280;48553;50.766;2.900;2023-04-24T10:34:08;100293.03;;;11.98;84.68
60852;BME280;48553;50.766;2.900;2023-04-24T10:37:09;100293.75;;;11.95;84.53
60852;BME280;48553;50.766;2.900;2023-04-24T10:40:10;100286.31;;;11.95;84.08
60852;BME280;48553;50.766;2.900;2023-04-24T10:43:17;100295.34;;;11.96;83.93
60852;BME280;48553;50.766;2.900;2023-04-24T10:46:20;100303.13;;;11.94;83.96
60852;BME280;48553;50.766;2.900;2023-04-24T10:49:28;100308.34;;;11.99;83.92
60852;BME280;48553;50.766;2.900;2023-04-24T10:52:46;100307.09;;;12.12;83.95
60852;BME280;48553;50.766;2.900;2023-04-24T10:55:49;100303.81;;;12.22;83.75
60852;BME280;48553;50.766;2.900;2023-04-24T10:58:51;100307.16;;;12.31;83.22
60852;BME280;48553;50.766;2.900;2023-04-24T11:01:54;100296.56;;;12.49;82.80
60852;BME280;48553;50.766;2.900;2023-04-24T11:04:57;100303.06;;;12.61;82.82
60852;BME280;48553;50.766;2.900;2023-04-24T11:08:10;100297.50;;;12.77;82.47
60852;BME280;48553;50.766;2.900;2023-04-24T11:11:18;100295.38;;;13.09;81.54
60852;BME280;48553;50.766;2.900;2023-04-24T11:14:20;100306.31;;;13.25;80.76
60852;BME280;48553;50.766;2.900;2023-04-24T11:17:35;100315.13;;;13.14;81.40
60852;BME280;48553;50.766;2.900;2023-04-24T11:20:42;100311.38;;;13.03;81.90
60852;BME280;48553;50.766;2.900;2023-04-24T11:23:42;100315.66;;;13.01;81.62
60852;BME280;48553;50.766;2.900;2023-04-24T11:26:44;100313.22;;;12.95;81.24
60852;BME280;48553;50.766;2.900;2023-04-24T11:32:52;100330.44;;;12.92;79.61
60852;BME280;48553;50.766;2.900;2023-04-24T11:35:53;100324.47;;;13.10;78.74
60852;BME280;48553;50.766;2.900;2023-04-24T11:38:53;100327.00;;;13.19;79.01
60852;BME280;48553;50.766;2.900;2023-04-24T11:42:02;100320.56;;;13.30;79.49
60852;BME280;48553;50.766;2.900;2023-04-24T11:45:08;100323.72;;;13.52;79.23
60852;BME280;48553;50.766;2.900;2023-04-24T11:48:09;100335.06;;;13.70;78.81
60852;BME280;48553;50.766;2.900;2023-04-24T11:51:12;100324.91;;;13.74;79.05
60852;BME280;48553;50.766;2.900;2023-04-24T11:54:12;100328.81;;;13.73;79.24
60852;BME280;48553;50.766;2.900;2023-04-24T11:57:13;100334.56;;;13.64;78.65
60852;BME280;48553;50.766;2.900;2023-04-24T12:00:18;100332.03;;;13.55;78.38
60852;BME280;48553;50.766;2.900;2023-04-24T12:03:19;100338.22;;;13.49;77.69
60852;BME280;48553;50.766;2.900;2023-04-24T12:06:19;100332.97;;;13.40;77.47
60852;BME280;48553;50.766;2.900;2023-04-24T12:09:20;100339.19;;;13.37;77.92
60852;BME280;48553;50.766;2.900;2023-04-24T12:12:20;100335.63;;;13.36;77.33
60852;BME280;48553;50.766;2.900;2023-04-24T12:15:21;100336.38;;;13.33;77.42
60852;BME280;48553;50.766;2.900;2023-04-24T12:18:23;100335.50;;;13.29;76.75
60852;BME280;48553;50.766;2.900;2023-04-24T12:21:23;100333.81;;;13.25;76.87
60852;BME280;48553;50.766;2.900;2023-04-24T12:24:26;100337.31;;;13.22;77.70
60852;BME280;48553;50.766;2.900;2023-04-24T12:27:33;100341.56;;;13.19;76.36
60852;BME280;48553;50.766;2.900;2023-04-24T12:30:39;100342.72;;;13.18;76.77
60852;BME280;48553;50.766;2.900;2023-04-24T12:33:40;100348.59;;;13.16;77.32
60852;BME280;48553;50.766;2.900;2023-04-24T12:36:40;100342.66;;;13.14;75.82
60852;BME280;48553;50.766;2.900;2023-04-24T12:39:58;100339.13;;;13.14;76.13
60852;BME280;48553;50.766;2.900;2023-04-24T12:42:59;100342.66;;;13.14;75.40
60852;BME280;48553;50.766;2.900;2023-04-24T12:46:00;100353.31;;;13.16;76.16
60852;BME280;48553;50.766;2.900;2023-04-24T12:49:00;100354.09;;;13.16;76.62
60852;BME280;48553;50.766;2.900;2023-04-24T12:52:01;100359.25;;;13.18;76.95
60852;BME280;48553;50.766;2.900;2023-04-24T12:55:02;100359.59;;;13.16;76.47
60852;BME280;48553;50.766;2.900;2023-04-24T12:58:03;100352.94;;;13.18;76.78
60852;BME280;48553;50.766;2.900;2023-04-24T13:01:03;100353.31;;;13.16;76.02
60852;BME280;48553;50.766;2.900;2023-04-24T13:04:05;100348.59;;;13.16;76.49
60852;BME280;48553;50.766;2.900;2023-04-24T13:07:05;100354.03;;;13.13;76.10
60852;BME280;48553;50.766;2.900;2023-04-24T13:10:06;100346.88;;;13.08;76.80
60852;BME280;48553;50.766;2.900;2023-04-24T13:13:07;100348.97;;;12.95;76.14
60852;BME280;48553;50.766;2.900;2023-04-24T13:16:07;100353.53;;;12.88;75.64
60852;BME280;48553;50.766;2.900;2023-04-24T13:19:08;100352.66;;;12.84;75.86
60852;BME280;48553;50.766;2.900;2023-04-24T13:22:10;100344.75;;;12.82;76.14
60852;BME280;48553;50.766;2.900;2023-04-24T13:25:11;100343.88;;;12.78;76.09
60852;BME280;48553;50.766;2.900;2023-04-24T13:28:11;100343.03;;;12.74;78.29
60852;BME280;48553;50.766;2.900;2023-04-24T13:31:12;100354.28;;;12.69;77.18
60852;BME280;48553;50.766;2.900;2023-04-24T13:34:13;100344.75;;;12.63;77.18
60852;BME280;48553;50.766;2.900;2023-04-24T13:37:14;100348.59;;;12.58;77.35
60852;BME280;48553;50.766;2.900;2023-04-24T13:40:14;100348.94;;;12.57;77.95
60852;BME280;48553;50.766;2.900;2023-04-24T13:43:15;100355.16;;;12.53;77.64
60852;BME280;48553;50.766;2.900;2023-04-24T13:46:16;100356.59;;;12.47;77.68
60852;BME280;48553;50.766;2.900;2023-04-24T13:49:16;100366.69;;;12.43;78.44
60852;BME280;48553;50.766;2.900;2023-04-24T13:52:17;100361.81;;;12.37;78.53
60852;BME280;48553;50.766;2.900;2023-04-24T13:55:17;100366.44;;;12.32;78.60
60852;BME280;48553;50.766;2.900;2023-04-24T13:58:17;100373.78;;;12.28;79.11
60852;BME280;48553;50.766;2.900;2023-04-24T14:01:18;100380.81;;;12.26;79.38
60852;BME280;48553;50.766;2.900;2023-04-24T14:04:18;100371.69;;;12.22;79.72
60852;BME280;48553;50.766;2.900;2023-04-24T14:07:19;100370.44;;;12.19;79.63
60852;BME280;48553;50.766;2.900;2023-04-24T14:10:19;100367.25;;;12.17;79.73
60852;BME280;48553;50.766;2.900;2023-04-24T14:13:20;100369.13;;;12.13;79.91
60852;BME280;48553;50.766;2.900;2023-04-24T14:16:20;100361.69;;;12.14;79.95
60852;BME280;48553;50.766;2.900;2023-04-24T14:19:21;100361.50;;;12.06;80.17
60852;BME280;48553;50.766;2.900;2023-04-24T14:22:22;100359.91;;;12.05;80.35
60852;BME280;48553;50.766;2.900;2023-04-24T14:25:22;100359.22;;;12.08;80.58
60852;BME280;48553;50.766;2.900;2023-04-24T14:28:23;100343.88;;;12.07;80.71
60852;BME280;48553;50.766;2.900;2023-04-24T14:31:24;100354.16;;;12.10;80.68
60852;BME280;48553;50.766;2.900;2023-04-24T14:34:25;100354.69;;;12.16;80.68
60852;BME280;48553;50.766;2.900;2023-04-24T14:37:25;100356.81;;;12.23;80.83
60852;BME280;48553;50.766;2.900;2023-04-24T14:40:26;100341.19;;;12.27;80.92
60852;BME280;48553;50.766;2.900;2023-04-24T14:43:26;100347.13;;;12.29;81.05
60852;BME280;48553;50.766;2.900;2023-04-24T14:46:27;100351.81;;;12.28;81.55
60852;BME280;48553;50.766;2.900;2023-04-24T14:49:27;100352.25;;;12.30;81.63
60852;BME280;48553;50.766;2.900;2023-04-24T14:52:28;100364.41;;;12.29;81.83
60852;BME280;48553;50.766;2.900;2023-04-24T14:55:28;100358.47;;;12.27;81.64
60852;BME280;48553;50.766;2.900;2023-04-24T14:58:29;100356.44;;;12.24;81.52
60852;BME280;48553;50.766;2.900;2023-04-24T15:01:29;100348.56;;;12.23;81.31
60852;BME280;48553;50.766;2.900;2023-04-24T15:04:30;100359.00;;;12.17;81.65
60852;BME280;48553;50.766;2.900;2023-04-24T15:07:31;100355.13;;;12.18;81.40
60852;BME280;48553;50.766;2.900;2023-04-24T15:10:31;100357.78;;;12.15;81.48
60852;BME280;48553;50.766;2.900;2023-04-24T15:13:32;100348.66;;;12.10;81.36
60852;BME280;48553;50.766;2.900;2023-04-24T15:16:32;100358.84;;;12.10;80.97
60852;BME280;48553;50.766;2.900;2023-04-24T15:19:33;100362.31;;;12.07;80.80
60852;BME280;48553;50.766;2.900;2023-04-24T15:22:33;100360.28;;;12.04;80.76
60852;BME280;48553;50.766;2.900;2023-04-24T15:25:34;100361.06;;;12.04;80.63
60852;BME280;48553;50.766;2.900;2023-04-24T15:28:35;100360.19;;;12.00;80.58
60852;BME280;48553;50.766;2.900;2023-04-24T15:31:35;100359.72;;;11.98;80.03
60852;BME280;48553;50.766;2.900;2023-04-24T15:34:39;100364.78;;;11.96;80.15
60852;BME280;48553;50.766;2.900;2023-04-24T15:37:40;100365.16;;;11.95;80.14
60852;BME280;48553;50.766;2.900;2023-04-24T15:40:40;100362.75;;;11.93;80.27
60852;BME280;48553;50.766;2.900;2023-04-24T15:43:40;100359.22;;;11.93;80.42
60852;BME280;48553;50.766;2.900;2023-04-24T15:46:41;100361.88;;;11.89;80.34
60852;BME280;48553;50.766;2.900;2023-04-24T15:49:41;100370.78;;;11.86;80.30
60852;BME280;48553;50.766;2.900;2023-04-24T15:52:42;100364.84;;;11.84;80.34
60852;BME280;48553;50.766;2.900;2023-04-24T15:55:43;100365.53;;;11.81;79.99
60852;BME280;48553;50.766;2.900;2023-04-24T15:58:43;100365.13;;;11.79;79.70
60852;BME280;48553;50.766;2.900;2023-04-24T16:01:44;100367.75;;;11.75;79.71
60852;BME280;48553;50.766;2.900;2023-04-24T16:04:48;100368.47;;;11.72;79.64